createdAt,value
2023-05-19T00:01:29.550Z,76232.53
2023-05-19T00:03:05.220Z,76240.44
2023-05-19T00:04:41.044Z,76238.47
2023-05-19T00:06:15.760Z,76248.34
2023-05-19T00:07:52.583Z,76236.47
2023-05-19T00:09:26.774Z,76236.47
2023-05-19T00:11:00.364Z,76232.53
2023-05-19T00:12:34.536Z,76234.50
2023-05-19T00:14:10.200Z,76230.53
2023-05-19T00:15:44.575Z,76222.63
2023-05-19T00:17:18.742Z,76220.66
2023-05-19T00:18:53.635Z,76206.81
2023-05-19T00:20:27.107Z,76220.66
2023-05-19T00:22:01.172Z,76212.75
2023-05-19T00:23:34.601Z,76204.84
2023-05-19T00:25:08.378Z,76212.75
2023-05-19T00:26:41.868Z,76212.75
2023-05-19T00:28:15.643Z,76202.88
2023-05-19T00:29:52.527Z,76204.84
2023-05-19T00:31:26.489Z,76210.78
2023-05-19T00:33:01.822Z,76206.81
2023-05-19T00:34:35.959Z,76252.28
2023-05-19T00:36:09.871Z,76192.97
2023-05-19T00:37:43.870Z,76240.44
2023-05-19T00:39:20.661Z,76191.00
2023-05-19T00:40:54.610Z,76194.97
2023-05-19T00:42:28.413Z,76189.03
2023-05-19T00:44:02.008Z,76194.97
2023-05-19T00:45:36.063Z,76185.06
2023-05-19T00:47:09.795Z,76191.00
2023-05-19T00:48:46.085Z,76189.03
2023-05-19T00:50:19.441Z,76179.13
2023-05-19T00:51:53.046Z,76192.97
2023-05-19T00:53:26.825Z,76189.03
2023-05-19T00:55:01.081Z,76198.91
2023-05-19T00:56:39.039Z,76185.06
2023-05-19T00:58:14.803Z,76191.00
2023-05-19T00:59:49.536Z,76177.16
2023-05-19T01:01:23.481Z,76183.09
2023-05-19T01:02:57.671Z,76181.13
2023-05-19T01:04:35.529Z,76187.03
2023-05-19T01:06:10.085Z,76185.06
2023-05-19T01:07:44.763Z,76167.28
2023-05-19T01:09:18.946Z,76181.13
2023-05-19T01:10:52.455Z,76165.31
2023-05-19T01:12:27.611Z,76165.31
2023-05-19T01:14:01.726Z,76157.38
2023-05-19T01:15:59.016Z,76161.34
2023-05-19T01:17:51.657Z,76153.44
2023-05-19T01:19:49.102Z,76137.63
2023-05-19T01:21:58.364Z,76137.63
2023-05-19T01:23:57.781Z,76183.09
2023-05-19T01:26:05.340Z,76125.75
2023-05-19T01:27:50.986Z,76127.72
2023-05-19T01:29:38.069Z,76117.84
2023-05-19T01:31:13.402Z,76121.81
2023-05-19T01:32:48.540Z,76100.06
2023-05-19T01:34:25.955Z,76096.09
2023-05-19T01:36:00.579Z,76105.97
2023-05-19T01:37:35.411Z,76100.06
2023-05-19T01:39:09.130Z,76111.91
2023-05-19T01:40:44.792Z,76086.22
2023-05-19T01:42:21.585Z,76121.81
2023-05-19T01:43:57.718Z,76082.25
2023-05-19T01:45:34.014Z,76080.28
2023-05-19T01:47:09.239Z,76060.50
2023-05-19T01:48:45.541Z,76050.63
2023-05-19T01:50:20.784Z,76074.34
2023-05-19T01:51:56.790Z,76066.44
2023-05-19T01:53:33.659Z,76072.38
2023-05-19T01:55:08.347Z,76070.41
2023-05-19T01:57:00.940Z,76066.44
2023-05-19T01:58:47.778Z,76036.78
2023-05-19T02:00:30.815Z,76028.88
2023-05-19T02:02:19.070Z,76046.66
2023-05-19T02:04:08.014Z,76022.94
2023-05-19T02:05:57.574Z,76026.91
2023-05-19T02:07:58.827Z,76019.00
2023-05-19T02:09:44.693Z,76026.91
2023-05-19T02:11:30.177Z,76019.00
2023-05-19T02:13:10.643Z,76032.84
2023-05-19T02:14:53.692Z,76022.94
2023-05-19T02:16:29.927Z,75997.25
2023-05-19T02:18:05.029Z,75995.25
2023-05-19T02:19:42.623Z,76019.00
2023-05-19T02:21:16.152Z,76034.81
2023-05-19T02:22:49.843Z,76013.06
2023-05-19T02:24:23.608Z,75995.25
2023-05-19T02:25:57.239Z,75973.50
2023-05-19T02:27:32.356Z,75937.94
2023-05-19T02:29:06.417Z,75951.78
2023-05-19T02:30:39.891Z,75935.94
2023-05-19T02:32:15.279Z,75947.81
2023-05-19T02:33:49.281Z,75941.88
2023-05-19T02:35:23.012Z,75916.19
2023-05-19T02:36:56.869Z,75932.00
2023-05-19T02:38:30.365Z,75912.22
2023-05-19T02:40:04.987Z,75914.19
2023-05-19T02:41:39.129Z,75908.28
2023-05-19T02:43:12.983Z,75864.78
2023-05-19T02:44:47.342Z,75900.38
2023-05-19T02:46:21.247Z,75941.88
2023-05-19T02:47:55.429Z,75933.97
2023-05-19T02:49:31.516Z,75906.28
2023-05-19T02:51:05.503Z,75910.25
2023-05-19T02:52:38.705Z,75884.56
2023-05-19T02:54:12.721Z,75839.06
2023-05-19T02:55:46.742Z,75789.66
2023-05-19T02:57:23.362Z,75694.75
2023-05-19T02:58:57.412Z,75682.91
2023-05-19T03:00:31.729Z,75631.50
2023-05-19T03:02:06.194Z,75582.06
2023-05-19T03:03:41.331Z,75552.41
2023-05-19T03:05:15.424Z,75459.50
2023-05-19T03:06:49.093Z,75477.28
2023-05-19T03:08:23.127Z,75548.47
2023-05-19T03:10:07.621Z,75639.41
2023-05-19T03:11:41.409Z,75649.28
2023-05-19T03:13:15.358Z,75659.16
2023-05-19T03:14:49.441Z,75698.72
2023-05-19T03:16:23.421Z,75696.72
2023-05-19T03:18:00.754Z,75718.47
2023-05-19T03:19:34.567Z,75722.44
2023-05-19T03:21:08.199Z,75568.22
2023-05-19T03:22:44.924Z,75540.56
2023-05-19T03:24:18.513Z,75382.41
2023-05-19T03:25:54.760Z,75394.28
2023-05-19T03:27:28.434Z,75374.50
2023-05-19T03:29:02.427Z,75376.47
2023-05-19T03:30:38.266Z,75303.34
2023-05-19T03:32:18.931Z,75121.47
2023-05-19T03:33:53.712Z,74939.63
2023-05-19T03:35:28.539Z,74765.69
2023-05-19T03:37:02.546Z,74791.38
2023-05-19T03:38:36.164Z,75008.81
2023-05-19T03:40:11.202Z,74979.16
2023-05-19T03:41:47.857Z,74937.66
2023-05-19T03:43:22.161Z,74931.72
2023-05-19T03:45:01.563Z,74876.38
2023-05-19T03:46:37.725Z,74868.47
2023-05-19T03:48:43.020Z,74738.03
2023-05-19T03:50:32.505Z,75042.41
2023-05-19T03:52:19.911Z,75234.16
2023-05-19T03:54:01.136Z,75329.03
2023-05-19T03:55:35.028Z,75340.91
2023-05-19T03:57:09.841Z,75340.91
2023-05-19T03:58:45.360Z,75378.47
2023-05-19T04:00:19.782Z,75386.38
2023-05-19T04:01:53.365Z,75263.81
2023-05-19T04:03:27.139Z,75117.53
2023-05-19T04:05:01.063Z,75176.81
2023-05-19T04:06:34.841Z,75176.81
2023-05-19T04:08:08.561Z,75279.63
2023-05-19T04:09:42.293Z,75348.81
2023-05-19T04:11:17.871Z,75453.56
2023-05-19T04:12:51.700Z,75463.47
2023-05-19T04:14:25.777Z,75455.56
2023-05-19T04:16:02.405Z,75449.63
2023-05-19T04:17:37.806Z,75504.97
2023-05-19T04:19:11.686Z,75439.75
2023-05-19T04:20:45.374Z,75437.75
2023-05-19T04:22:18.882Z,75461.47
2023-05-19T04:23:52.342Z,75461.47
2023-05-19T04:25:26.065Z,75508.94
2023-05-19T04:27:05.202Z,75554.41
2023-05-19T04:28:40.417Z,75526.72
2023-05-19T04:30:18.629Z,75558.34
2023-05-19T04:31:53.322Z,75564.28
2023-05-19T04:33:29.745Z,75534.63
2023-05-19T04:35:04.589Z,75473.34
2023-05-19T04:36:38.642Z,75473.34
2023-05-19T04:38:12.877Z,75477.28
2023-05-19T04:39:48.921Z,75479.28
2023-05-19T04:41:23.999Z,75398.22
2023-05-19T04:42:58.530Z,75441.72
2023-05-19T04:44:32.207Z,75398.22
2023-05-19T04:46:06.650Z,75291.47
2023-05-19T04:47:42.470Z,75315.19
2023-05-19T04:49:16.095Z,75192.63
2023-05-19T04:50:50.067Z,75121.47
2023-05-19T04:52:24.318Z,75125.44
2023-05-19T04:53:59.095Z,75218.34
2023-05-19T04:55:33.272Z,75210.44
2023-05-19T04:57:07.808Z,75176.81
2023-05-19T04:58:45.233Z,75301.38
2023-05-19T05:00:19.317Z,75346.81
2023-05-19T05:02:00.321Z,75273.69
2023-05-19T05:03:36.493Z,75331.00
2023-05-19T05:05:13.334Z,75398.22
2023-05-19T05:06:49.004Z,75406.13
2023-05-19T05:08:23.959Z,75425.91
2023-05-19T05:09:57.596Z,75372.53
2023-05-19T05:11:37.979Z,75386.38
2023-05-19T05:13:12.013Z,75366.59
2023-05-19T05:14:46.209Z,75338.91
2023-05-19T05:16:19.967Z,75283.56
2023-05-19T05:17:56.799Z,75313.22
2023-05-19T05:19:31.350Z,75362.63
2023-05-19T05:21:05.310Z,75437.75
2023-05-19T05:22:39.579Z,75481.25
2023-05-19T05:24:14.994Z,75489.16
2023-05-19T05:25:55.151Z,75512.88
2023-05-19T05:27:29.194Z,75481.25
2023-05-19T05:29:05.518Z,75449.63
2023-05-19T05:30:41.913Z,75404.16
2023-05-19T05:32:17.350Z,75378.47
2023-05-19T05:33:51.153Z,75473.34
2023-05-19T05:35:28.109Z,75493.13
2023-05-19T05:37:01.655Z,75497.06
2023-05-19T05:38:36.650Z,75506.94
2023-05-19T05:40:10.228Z,75504.97
2023-05-19T05:41:43.601Z,75481.25
2023-05-19T05:43:18.618Z,75358.69
2023-05-19T05:44:57.672Z,75319.16
2023-05-19T05:46:31.162Z,75289.50
2023-05-19T05:48:05.020Z,75334.97
2023-05-19T05:49:39.532Z,75392.28
2023-05-19T05:51:13.173Z,75418.00
2023-05-19T05:52:51.545Z,75469.38
2023-05-19T05:54:25.384Z,75457.53
2023-05-19T05:56:00.450Z,75449.63
2023-05-19T05:57:45.326Z,75449.63
2023-05-19T05:59:22.289Z,75429.84
2023-05-19T06:00:58.315Z,75386.38
2023-05-19T06:02:33.338Z,75338.91
2023-05-19T06:04:06.949Z,75346.81
2023-05-19T06:05:41.052Z,75344.84
2023-05-19T06:07:18.013Z,75362.63
2023-05-19T06:09:02.643Z,75366.59
2023-05-19T06:10:37.247Z,75402.19
2023-05-19T06:12:13.861Z,75378.47
2023-05-19T06:13:52.521Z,75325.09
2023-05-19T06:15:45.150Z,75354.72
2023-05-19T06:17:36.620Z,75348.81
2023-05-19T06:19:10.258Z,75317.19
2023-05-19T06:20:43.419Z,75319.16
2023-05-19T06:22:16.714Z,75315.19
2023-05-19T06:23:50.497Z,75303.34
2023-05-19T06:25:25.196Z,75323.09
2023-05-19T06:26:58.503Z,75287.53
2023-05-19T06:28:32.005Z,75293.44
2023-05-19T06:30:05.640Z,75336.94
2023-05-19T06:31:45.516Z,75311.25
2023-05-19T06:33:22.327Z,75263.81
2023-05-19T06:34:56.342Z,75236.13
2023-05-19T06:36:29.745Z,75228.22
2023-05-19T06:38:04.254Z,75218.34
2023-05-19T06:39:39.214Z,75228.22
2023-05-19T06:41:13.013Z,75265.78
2023-05-19T06:42:47.383Z,75263.81
2023-05-19T06:44:24.783Z,75220.31
2023-05-19T06:45:57.872Z,75164.97
2023-05-19T06:47:32.209Z,75224.28
2023-05-19T06:49:05.809Z,75220.31
2023-05-19T06:50:44.167Z,75236.13
2023-05-19T06:52:18.045Z,75188.69
2023-05-19T06:53:51.828Z,75137.28
2023-05-19T06:55:28.818Z,75159.03
2023-05-19T06:57:02.244Z,75186.72
2023-05-19T06:58:35.861Z,75265.78
2023-05-19T07:00:15.160Z,75253.91
2023-05-19T07:01:53.563Z,75168.91
2023-05-19T07:03:27.862Z,75216.38
2023-05-19T07:05:02.101Z,75204.50
2023-05-19T07:06:37.552Z,75180.78
2023-05-19T07:08:11.296Z,75192.63
2023-05-19T07:09:46.657Z,75240.09
2023-05-19T07:11:19.970Z,75176.81
2023-05-19T07:12:58.813Z,75133.34
2023-05-19T07:14:37.989Z,75123.47
2023-05-19T07:16:12.016Z,75034.50
2023-05-19T07:17:45.668Z,75089.84
2023-05-19T07:19:22.868Z,75058.22
2023-05-19T07:20:57.867Z,75111.59
2023-05-19T07:22:31.871Z,75083.94
2023-05-19T07:24:05.670Z,75066.13
2023-05-19T07:25:39.003Z,75054.28
2023-05-19T07:27:12.250Z,75054.28
2023-05-19T07:28:45.884Z,75066.13
2023-05-19T07:30:19.352Z,75101.72
2023-05-19T07:31:54.588Z,75040.44
2023-05-19T07:33:28.015Z,75068.09
2023-05-19T07:35:01.548Z,75147.19
2023-05-19T07:36:34.988Z,75121.47
2023-05-19T07:38:08.554Z,75157.06
2023-05-19T07:39:41.977Z,75133.34
2023-05-19T07:41:15.766Z,75157.06
2023-05-19T07:42:52.540Z,75176.81
2023-05-19T07:44:27.422Z,75153.09
2023-05-19T07:46:00.826Z,75164.97
2023-05-19T07:47:34.229Z,75091.84
2023-05-19T07:49:07.535Z,75123.47
2023-05-19T07:50:41.266Z,75141.25
2023-05-19T07:52:15.031Z,75133.34
2023-05-19T07:53:48.696Z,75186.72
2023-05-19T07:55:23.610Z,75139.28
2023-05-19T07:56:57.114Z,75168.91
2023-05-19T07:58:30.562Z,75135.31
2023-05-19T08:00:08.025Z,75149.16
2023-05-19T08:01:44.938Z,75176.81
2023-05-19T08:03:18.750Z,75135.31
2023-05-19T08:04:52.101Z,75085.91
2023-05-19T08:06:25.591Z,75109.63
2023-05-19T08:07:58.721Z,75072.06
2023-05-19T08:09:31.689Z,75143.22
2023-05-19T08:11:05.127Z,75093.81
2023-05-19T08:12:38.159Z,75050.31
2023-05-19T08:14:11.472Z,75042.41
2023-05-19T08:15:44.908Z,75010.78
2023-05-19T08:17:18.042Z,74987.06
2023-05-19T08:18:52.119Z,74963.34
2023-05-19T08:20:25.254Z,74996.94
2023-05-19T08:22:01.480Z,75042.41
2023-05-19T08:23:34.774Z,75085.91
2023-05-19T08:25:08.362Z,75129.38
2023-05-19T08:26:41.404Z,75157.06
2023-05-19T08:28:14.207Z,75149.16
2023-05-19T08:29:50.237Z,75101.72
2023-05-19T08:31:23.778Z,75196.59
2023-05-19T08:32:57.328Z,75153.09
2023-05-19T08:34:30.807Z,75113.56
2023-05-19T08:36:04.407Z,75194.63
2023-05-19T08:37:38.881Z,75194.63
2023-05-19T08:39:13.894Z,75275.66
2023-05-19T08:40:48.758Z,75244.03
2023-05-19T08:42:21.757Z,75251.94
2023-05-19T08:43:55.381Z,75255.91
2023-05-19T08:45:28.828Z,75200.53
2023-05-19T08:47:13.236Z,75184.72
2023-05-19T08:48:49.307Z,75117.53
2023-05-19T08:50:31.007Z,75149.16
2023-05-19T08:52:15.763Z,75147.19
2023-05-19T08:53:52.285Z,75103.69
2023-05-19T08:55:47.569Z,75168.91
2023-05-19T08:57:24.124Z,75133.34
2023-05-19T08:59:00.780Z,75176.81
2023-05-19T09:00:34.833Z,75194.63
2023-05-19T09:02:11.959Z,75244.03
2023-05-19T09:03:47.453Z,75222.28
2023-05-19T09:05:21.591Z,75210.44
2023-05-19T09:06:54.790Z,75224.28
2023-05-19T09:08:28.155Z,75220.31
2023-05-19T09:10:02.381Z,75283.56
2023-05-19T09:11:39.040Z,75273.69
2023-05-19T09:13:12.647Z,75244.03
2023-05-19T09:14:46.937Z,75267.75
2023-05-19T09:16:20.320Z,75291.47
2023-05-19T09:18:07.308Z,75315.19
2023-05-19T09:19:49.661Z,75283.56
2023-05-19T09:21:33.443Z,75315.19
2023-05-19T09:23:07.205Z,75303.34
2023-05-19T09:24:42.191Z,75303.34
2023-05-19T09:26:15.899Z,75307.28
2023-05-19T09:27:49.948Z,75307.28
2023-05-19T09:29:23.632Z,75305.31
2023-05-19T09:31:10.325Z,75303.34
2023-05-19T09:32:48.234Z,75287.53
2023-05-19T09:34:25.303Z,75295.44
2023-05-19T09:35:59.098Z,75342.88
2023-05-19T09:37:35.191Z,75321.13
2023-05-19T09:39:18.521Z,75311.25
2023-05-19T09:40:52.574Z,75319.16
2023-05-19T09:42:27.404Z,75319.16
2023-05-19T09:44:00.975Z,75311.25
2023-05-19T09:45:34.514Z,75344.84
2023-05-19T09:47:10.539Z,75370.53
2023-05-19T09:48:44.244Z,75378.47
2023-05-19T09:50:17.730Z,75329.03
2023-05-19T09:51:54.962Z,75315.19
2023-05-19T09:53:30.835Z,75303.34
2023-05-19T09:55:09.646Z,75327.06
2023-05-19T09:56:43.486Z,75315.19
2023-05-19T09:58:19.662Z,75329.03
2023-05-19T09:59:53.348Z,75311.25
2023-05-19T10:01:26.906Z,75319.16
2023-05-19T10:03:02.830Z,75307.28
2023-05-19T10:04:36.757Z,75303.34
2023-05-19T10:06:10.550Z,75295.44
2023-05-19T10:07:50.312Z,75327.06
2023-05-19T10:09:28.372Z,75301.38
2023-05-19T10:11:03.854Z,75334.97
2023-05-19T10:12:39.770Z,75340.91
2023-05-19T10:14:12.976Z,75338.91
2023-05-19T10:15:58.190Z,75358.69
2023-05-19T10:17:34.537Z,75386.38
2023-05-19T10:19:09.564Z,75394.28
2023-05-19T10:20:43.169Z,75437.75
2023-05-19T10:22:16.294Z,75473.34
2023-05-19T10:23:49.848Z,75479.28
2023-05-19T10:25:23.364Z,75455.56
2023-05-19T10:27:16.137Z,75449.63
2023-05-19T10:28:50.336Z,75447.66
2023-05-19T10:30:33.836Z,75445.66
2023-05-19T10:32:17.736Z,75427.88
2023-05-19T10:33:56.854Z,75412.06
2023-05-19T10:36:21.639Z,75414.03
2023-05-19T10:38:13.509Z,75416.00
2023-05-19T10:39:49.205Z,75445.66
2023-05-19T10:41:47.069Z,75418.00
2023-05-19T10:43:40.031Z,75419.97
2023-05-19T10:45:23.170Z,75412.06
2023-05-19T10:46:57.121Z,75416.00
2023-05-19T10:48:37.831Z,75443.69
2023-05-19T10:50:11.924Z,75449.63
2023-05-19T10:51:46.088Z,75473.34
2023-05-19T10:53:22.350Z,75499.03
2023-05-19T10:54:56.143Z,75485.19
2023-05-19T10:56:35.393Z,75467.41
2023-05-19T10:58:09.281Z,75455.56
2023-05-19T10:59:42.428Z,75463.47
2023-05-19T11:01:24.927Z,75471.38
2023-05-19T11:03:14.825Z,75463.47
2023-05-19T11:04:54.753Z,75437.75
2023-05-19T11:06:32.776Z,75423.94
2023-05-19T11:08:11.960Z,75429.84
2023-05-19T11:09:49.701Z,75429.84
2023-05-19T11:11:23.707Z,75416.00
2023-05-19T11:12:58.439Z,75416.00
2023-05-19T11:14:33.070Z,75402.19
2023-05-19T11:16:09.713Z,75398.22
2023-05-19T11:17:46.745Z,75378.47
2023-05-19T11:19:27.001Z,75368.56
2023-05-19T11:21:02.915Z,75372.53
2023-05-19T11:22:37.645Z,75362.63
2023-05-19T11:24:31.594Z,75352.75
2023-05-19T11:26:08.950Z,75350.78
2023-05-19T11:27:42.802Z,75350.78
2023-05-19T11:29:17.793Z,75362.63
2023-05-19T11:30:54.864Z,75354.72
2023-05-19T11:32:32.564Z,75356.72
2023-05-19T11:34:07.808Z,75398.22
2023-05-19T11:35:43.177Z,75439.75
2023-05-19T11:37:17.128Z,75423.94
2023-05-19T11:38:51.567Z,75425.91
2023-05-19T11:40:25.636Z,75418.00
2023-05-19T11:41:59.547Z,75416.00
2023-05-19T11:43:32.845Z,75414.03
2023-05-19T11:45:06.850Z,75419.97
2023-05-19T11:46:41.557Z,75412.06
2023-05-19T11:48:16.326Z,75441.72
2023-05-19T11:49:52.353Z,75410.09
2023-05-19T11:51:26.010Z,75414.03
2023-05-19T11:53:02.027Z,75406.13
2023-05-19T11:54:39.744Z,75406.13
2023-05-19T11:56:13.132Z,75382.41
2023-05-19T11:59:38.075Z,75374.50
2023-05-19T12:01:11.617Z,75394.28
2023-05-19T12:02:44.868Z,75366.59
2023-05-19T12:04:20.338Z,75374.50
2023-05-19T12:05:54.632Z,75386.38
2023-05-19T12:07:28.138Z,75418.00
2023-05-19T12:09:04.550Z,75414.03
2023-05-19T12:10:39.068Z,75390.31
2023-05-19T12:12:19.057Z,75386.38
2023-05-19T12:13:54.957Z,75394.28
2023-05-19T12:15:28.826Z,75378.47
2023-05-19T12:17:15.419Z,75388.34
2023-05-19T12:18:48.653Z,75364.63
2023-05-19T12:20:22.616Z,75344.84
2023-05-19T12:21:56.037Z,75331.00
2023-05-19T12:23:31.217Z,75338.91
2023-05-19T12:25:05.569Z,75342.88
2023-05-19T12:26:38.792Z,75362.63
2023-05-19T12:28:12.590Z,75344.84
2023-05-19T12:29:52.164Z,75331.00
2023-05-19T12:31:25.312Z,75340.91
2023-05-19T12:32:58.879Z,75346.81
2023-05-19T12:34:32.507Z,75354.72
2023-05-19T12:36:09.100Z,75386.38
2023-05-19T12:37:43.166Z,75402.19
2023-05-19T12:39:18.044Z,75423.94
2023-05-19T12:40:53.313Z,75437.75
2023-05-19T12:42:31.704Z,75441.72
2023-05-19T12:44:15.783Z,75443.69
2023-05-19T12:45:52.788Z,75459.50
2023-05-19T12:47:36.426Z,75425.91
2023-05-19T12:49:11.079Z,75398.22
2023-05-19T12:50:45.601Z,75386.38
2023-05-19T12:52:19.096Z,75421.94
2023-05-19T12:53:52.396Z,75429.84
2023-05-19T12:55:25.882Z,75421.94
2023-05-19T12:56:59.898Z,75457.53
2023-05-19T12:58:34.963Z,75465.44
2023-05-19T13:00:14.516Z,75469.38
2023-05-19T13:01:56.646Z,75473.34
2023-05-19T13:03:30.341Z,75485.19
2023-05-19T13:05:05.649Z,75469.38
2023-05-19T13:06:39.950Z,75453.56
2023-05-19T13:08:19.074Z,75461.47
2023-05-19T13:09:52.392Z,75487.19
2023-05-19T13:11:25.942Z,75479.28
2023-05-19T13:13:00.709Z,75487.19
2023-05-19T13:14:34.169Z,75506.94
2023-05-19T13:16:07.656Z,75530.66
2023-05-19T13:17:41.005Z,75554.41
2023-05-19T13:20:56.419Z,75584.06
2023-05-19T13:22:29.823Z,75589.97
2023-05-19T13:24:04.770Z,75588.00
2023-05-19T13:25:38.090Z,75588.00
2023-05-19T13:27:11.101Z,75580.09
2023-05-19T13:28:44.792Z,75584.06
2023-05-19T13:30:19.498Z,75586.03
2023-05-19T13:31:52.741Z,75603.81
2023-05-19T13:33:26.341Z,75609.75
2023-05-19T13:35:01.115Z,75584.06
2023-05-19T13:36:35.381Z,75597.88
2023-05-19T13:38:10.730Z,75601.84
2023-05-19T13:39:44.867Z,75593.94
2023-05-19T13:41:18.656Z,75631.50
2023-05-19T13:42:51.796Z,75599.88
2023-05-19T13:44:26.390Z,75631.50
2023-05-19T13:45:59.988Z,75649.28
2023-05-19T13:47:33.825Z,75659.16
2023-05-19T13:49:07.514Z,75661.16
2023-05-19T13:50:41.028Z,75665.09
2023-05-19T13:52:18.302Z,75671.03
2023-05-19T13:53:51.576Z,75690.81
2023-05-19T13:55:27.599Z,75682.91
2023-05-19T13:57:02.114Z,75706.63
2023-05-19T13:58:35.713Z,75706.63
2023-05-19T14:00:11.154Z,75678.94
2023-05-19T14:01:48.501Z,75706.63
2023-05-19T14:03:21.932Z,75698.72
2023-05-19T14:04:56.383Z,75722.44
2023-05-19T14:06:29.784Z,75694.75
2023-05-19T14:08:04.139Z,75698.72
2023-05-19T14:09:37.548Z,75694.75
2023-05-19T14:11:11.211Z,75696.72
2023-05-19T14:13:04.869Z,75694.75
2023-05-19T14:14:38.563Z,75714.53
2023-05-19T14:16:12.329Z,75714.53
2023-05-19T14:17:45.507Z,75714.53
2023-05-19T14:19:19.293Z,75702.66
2023-05-19T14:20:52.933Z,75698.72
2023-05-19T14:22:27.699Z,75700.69
2023-05-19T14:24:01.819Z,75700.69
2023-05-19T14:25:35.019Z,75702.66
2023-05-19T14:27:08.170Z,75680.91
2023-05-19T14:28:41.336Z,75702.66
2023-05-19T14:30:14.508Z,75690.81
2023-05-19T14:31:48.406Z,75708.59
2023-05-19T14:33:23.101Z,75700.69
2023-05-19T14:34:56.630Z,75706.63
2023-05-19T14:36:29.624Z,75722.44
2023-05-19T14:38:03.036Z,75718.47
2023-05-19T14:39:36.010Z,75714.53
2023-05-19T14:41:09.640Z,75726.38
2023-05-19T14:42:42.528Z,75710.56
2023-05-19T14:44:15.660Z,75722.44
2023-05-19T14:45:49.333Z,75734.28
2023-05-19T14:47:22.863Z,75724.41
2023-05-19T14:48:56.486Z,75722.44
2023-05-19T14:50:29.820Z,75728.38
2023-05-19T14:52:03.225Z,75744.19
2023-05-19T14:53:36.433Z,75746.16
2023-05-19T14:55:12.348Z,75748.13
2023-05-19T14:56:46.133Z,75758.03
2023-05-19T14:58:27.759Z,75765.94
2023-05-19T15:00:03.014Z,75781.75
2023-05-19T15:01:36.786Z,75801.50
2023-05-19T15:03:10.213Z,75773.84
2023-05-19T15:04:43.514Z,75773.84
2023-05-19T15:06:17.596Z,75771.84
2023-05-19T15:07:51.672Z,75773.84
2023-05-19T15:09:25.384Z,75781.75
2023-05-19T15:10:59.137Z,75781.75
2023-05-19T15:12:33.739Z,75783.72
2023-05-19T15:14:07.738Z,75793.59
2023-05-19T15:15:41.103Z,75787.69
2023-05-19T15:17:14.262Z,75785.69
2023-05-19T15:18:47.873Z,75787.69
2023-05-19T15:20:21.266Z,75803.50
2023-05-19T15:21:54.665Z,75807.44
2023-05-19T15:23:27.906Z,75813.38
2023-05-19T15:25:01.762Z,75813.38
2023-05-19T15:26:35.376Z,75833.16
2023-05-19T15:28:08.793Z,75823.25
2023-05-19T15:29:42.223Z,75821.28
2023-05-19T15:31:15.734Z,75821.28
2023-05-19T15:32:48.956Z,75821.28
2023-05-19T15:34:22.319Z,75839.06
2023-05-19T15:35:55.380Z,75837.09
2023-05-19T15:37:28.722Z,75837.09
2023-05-19T15:39:01.981Z,75848.97
2023-05-19T15:40:35.766Z,75848.97
2023-05-19T15:42:08.897Z,75876.63
2023-05-19T15:43:42.418Z,75852.91
2023-05-19T15:45:15.869Z,75848.97
2023-05-19T15:46:48.933Z,75843.03
2023-05-19T15:48:21.934Z,75843.03
2023-05-19T15:49:55.284Z,75856.88
2023-05-19T15:51:28.578Z,75848.97
2023-05-19T15:53:01.724Z,75860.81
2023-05-19T15:54:34.920Z,75856.88
2023-05-19T15:56:08.241Z,75876.63
2023-05-19T15:57:41.541Z,75880.59
2023-05-19T15:59:14.600Z,75888.50
2023-05-19T16:00:48.299Z,75904.31
2023-05-19T16:02:21.929Z,75930.03
2023-05-19T16:03:55.209Z,75900.38
2023-05-19T16:05:28.213Z,75904.31
2023-05-19T16:07:01.269Z,75908.28
2023-05-19T16:08:34.136Z,75908.28
2023-05-19T16:10:07.776Z,75904.31
2023-05-19T16:11:40.917Z,75904.31
2023-05-19T16:13:14.574Z,75908.28
2023-05-19T16:14:48.215Z,75914.19
2023-05-19T16:16:21.519Z,75908.28
2023-05-19T16:17:55.576Z,75906.28
2023-05-19T16:19:29.090Z,75916.19
2023-05-19T16:21:02.325Z,75922.13
2023-05-19T16:22:35.587Z,75920.13
2023-05-19T16:24:08.821Z,75912.22
2023-05-19T16:25:42.349Z,75916.19
2023-05-19T16:27:16.304Z,75920.13
2023-05-19T16:28:49.368Z,75928.03
2023-05-19T16:30:23.484Z,75920.13
2023-05-19T16:31:56.896Z,75930.03
2023-05-19T16:33:30.956Z,75932.00
2023-05-19T16:35:04.624Z,75943.88
2023-05-19T16:36:37.807Z,75926.06
2023-05-19T16:38:11.194Z,75916.19
2023-05-19T16:39:44.412Z,75928.03
2023-05-19T16:41:17.654Z,75926.06
2023-05-19T16:42:53.531Z,75935.94
2023-05-19T16:44:26.861Z,75965.59
2023-05-19T16:46:00.246Z,75924.09
2023-05-19T16:47:33.720Z,75930.03
2023-05-19T16:49:07.007Z,75941.88
2023-05-19T16:50:40.204Z,75945.84
2023-05-19T16:52:13.368Z,75951.78
2023-05-19T16:53:46.529Z,75947.81
2023-05-19T16:55:20.722Z,75967.59
2023-05-19T16:56:53.765Z,75949.78
2023-05-19T16:58:28.793Z,75935.94
2023-05-19T17:00:03.943Z,75943.88
2023-05-19T17:01:39.731Z,75937.94
2023-05-19T17:03:13.326Z,75951.78
2023-05-19T17:04:46.745Z,75945.84
2023-05-19T17:06:19.855Z,75959.69
2023-05-19T17:07:53.119Z,75959.69
2023-05-19T17:09:26.802Z,75955.72
2023-05-19T17:11:00.591Z,75953.75
2023-05-19T17:12:34.208Z,75971.53
2023-05-19T17:14:10.214Z,75965.59
2023-05-19T17:15:43.653Z,75959.69
2023-05-19T17:17:17.230Z,75969.56
2023-05-19T17:18:50.533Z,75971.53
2023-05-19T17:20:24.030Z,75979.44
2023-05-19T17:21:57.106Z,75963.63
2023-05-19T17:23:30.383Z,75977.47
2023-05-19T17:25:04.383Z,75991.31
2023-05-19T17:26:38.201Z,75977.47
2023-05-19T17:28:11.623Z,75987.34
2023-05-19T17:29:45.203Z,75981.44
2023-05-19T17:31:18.892Z,75987.34
2023-05-19T17:32:52.916Z,75991.31
2023-05-19T17:34:26.412Z,75975.50
2023-05-19T17:36:03.774Z,76020.97
2023-05-19T17:37:37.548Z,75975.50
2023-05-19T17:39:11.420Z,75979.44
2023-05-19T17:40:44.940Z,75963.63
2023-05-19T17:42:18.210Z,75989.34
2023-05-19T17:43:51.908Z,75979.44
2023-05-19T17:45:28.129Z,75973.50
2023-05-19T17:47:02.788Z,75979.44
2023-05-19T17:48:40.371Z,75989.34
2023-05-19T17:50:13.943Z,75979.44
2023-05-19T17:51:47.927Z,75983.41
2023-05-19T17:53:21.739Z,75993.28
2023-05-19T17:54:56.028Z,76003.16
2023-05-19T17:56:32.964Z,75987.34
2023-05-19T17:58:06.971Z,75983.41
2023-05-19T17:59:40.877Z,75975.50
2023-05-19T18:01:15.027Z,75971.53
2023-05-19T18:02:49.169Z,75991.31
2023-05-19T18:04:23.141Z,75981.44
2023-05-19T18:05:56.865Z,75977.47
2023-05-19T18:07:31.881Z,75983.41
2023-05-19T18:09:09.793Z,75971.53
2023-05-19T18:10:44.246Z,75979.44
2023-05-19T18:12:17.994Z,75987.34
2023-05-19T18:13:52.239Z,75981.44
2023-05-19T18:15:25.929Z,75993.28
2023-05-19T18:17:00.972Z,75987.34
2023-05-19T18:18:37.602Z,75987.34
2023-05-19T18:20:12.059Z,75995.25
2023-05-19T18:21:46.602Z,75999.22
2023-05-19T18:23:23.101Z,75991.31
2023-05-19T18:24:58.327Z,75997.25
2023-05-19T18:26:33.462Z,75987.34
2023-05-19T18:28:06.700Z,75995.25
2023-05-19T18:29:40.476Z,76001.19
2023-05-19T18:31:20.263Z,75993.28
2023-05-19T18:32:54.245Z,75991.31
2023-05-19T18:34:28.104Z,75979.44
2023-05-19T18:36:01.836Z,75979.44
2023-05-19T18:37:36.151Z,75979.44
2023-05-19T18:39:09.849Z,75993.28
2023-05-19T18:40:46.929Z,75999.22
2023-05-19T18:42:20.564Z,76026.91
2023-05-19T18:43:55.256Z,76009.09
2023-05-19T18:45:32.111Z,75999.22
2023-05-19T18:47:06.761Z,75993.28
2023-05-19T18:48:42.857Z,75985.38